Time;durP1;ratioP1;P1;durP2;ratioP2;P2;SDS_P1;SDS_P2;PMS_P1;PMS_P2;Temp;Humidity;BMP_temperature;BMP_pressure;BME280_temperature;BME280_humidity;BME280_pressure;Samples;Min_cycle;Max_cycle;Signal;HPM_P1;HPM_P2
2022/12/03 00:00:22;;;;;;;20.93;17.77;;;;;20.90;101082.00;;;;2079990;28;20220;-51
2022/12/03 00:01:23;;;;;;;20.40;18.13;;;;;20.90;101088.00;;;;2083476;28;20232;-49
2022/12/03 00:02:23;;;;;;;21.40;16.87;;;;;20.90;101085.00;;;;2084510;28;20247;-50
2022/12/03 00:03:23;;;;;;;19.53;16.57;;;;;20.90;101085.00;;;;2078182;28;20239;-50
2022/12/03 00:04:24;;;;;;;18.37;16.27;;;;;20.80;101082.00;;;;2082989;28;20244;-50
2022/12/03 00:05:24;;;;;;;19.40;15.60;;;;;20.90;101091.00;;;;2083829;28;20259;-50
2022/12/03 00:06:24;;;;;;;18.17;16.00;;;;;20.90;101086.00;;;;2083570;28;20236;-51
2022/12/03 00:07:25;;;;;;;20.00;16.30;;;;;20.90;101085.00;;;;2087342;28;20240;-50
2022/12/03 00:08:25;;;;;;;17.97;16.07;;;;;20.90;101086.00;;;;2086830;28;20301;-50
2022/12/03 00:09:25;;;;;;;19.10;16.30;;;;;20.90;101082.00;;;;2087485;28;20220;-51
2022/12/03 00:10:26;;;;;;;17.80;15.23;;;;;20.90;101075.00;;;;2087491;28;20216;-50
2022/12/03 00:11:26;;;;;;;18.17;15.13;;;;;20.80;101088.00;;;;2080779;28;20217;-51
2022/12/03 00:12:26;;;;;;;17.90;15.70;;;;;20.80;101086.00;;;;2082531;28;20206;-50
2022/12/03 00:13:27;;;;;;;17.27;15.37;;;;;20.80;101086.00;;;;2082181;28;20252;-49
2022/12/03 00:14:27;;;;;;;16.93;15.03;;;;;20.80;101085.00;;;;2080516;28;20211;-50
2022/12/03 00:15:27;;;;;;;16.03;14.33;;;;;20.80;101085.00;;;;2083707;28;20205;-50
2022/12/03 00:16:28;;;;;;;16.80;15.00;;;;;20.80;101095.00;;;;2080402;28;20223;-50
2022/12/03 00:17:28;;;;;;;17.20;15.20;;;;;20.80;101086.00;;;;2078695;28;20229;-50
2022/12/03 00:18:28;;;;;;;16.20;14.00;;;;;20.80;101087.00;;;;2082538;28;20267;-50
2022/12/03 00:19:29;;;;;;;15.80;14.10;;;;;20.80;101086.00;;;;2081152;28;20220;-49
2022/12/03 00:20:29;;;;;;;16.60;14.13;;;;;20.80;101089.00;;;;2083625;28;20219;-49
2022/12/03 00:21:29;;;;;;;16.07;14.40;;;;;20.80;101082.00;;;;2079551;28;20237;-50
2022/12/03 00:22:30;;;;;;;15.87;13.20;;;;;20.80;101083.00;;;;2078695;28;20224;-50
2022/12/03 00:23:30;;;;;;;16.77;13.90;;;;;20.70;101088.00;;;;2084390;28;20209;-50
2022/12/03 00:24:31;;;;;;;15.93;13.57;;;;;20.80;101090.00;;;;2083233;28;20308;-50
2022/12/03 00:25:31;;;;;;;15.10;13.50;;;;;20.70;101083.00;;;;2087152;28;20720;-49
2022/12/03 00:26:31;;;;;;;13.60;12.20;;;;;20.70;101091.00;;;;2082329;28;20214;-50
2022/12/03 00:27:32;;;;;;;16.20;13.50;;;;;20.70;101083.00;;;;2077743;28;20221;-50
2022/12/03 00:28:32;;;;;;;15.63;13.93;;;;;20.70;101079.00;;;;2078861;28;20225;-49
2022/12/03 00:29:32;;;;;;;15.07;12.97;;;;;20.80;101081.00;;;;2078746;28;20214;-49
2022/12/03 00:30:33;;;;;;;14.83;13.23;;;;;20.80;101086.00;;;;2082325;28;20260;-49
2022/12/03 00:31:33;;;;;;;13.97;12.57;;;;;20.70;101078.00;;;;2078629;28;20230;-48
2022/12/03 00:32:33;;;;;;;13.97;12.47;;;;;20.70;101078.00;;;;2084489;28;20224;-49
2022/12/03 00:33:34;;;;;;;18.07;12.70;;;;;20.70;101080.00;;;;2077177;28;20226;-51
2022/12/03 00:34:34;;;;;;;15.00;12.63;;;;;20.70;101081.00;;;;2086279;28;20217;-50
2022/12/03 00:35:34;;;;;;;14.20;12.57;;;;;20.70;101081.00;;;;2081925;28;20271;-51
2022/12/03 00:36:35;;;;;;;14.10;11.83;;;;;20.70;101082.00;;;;2080855;28;20233;-50
2022/12/03 00:37:35;;;;;;;13.67;12.03;;;;;20.70;101077.00;;;;2087097;28;20220;-50
2022/12/03 00:38:35;;;;;;;12.70;11.40;;;;;20.70;101079.00;;;;2082966;28;20312;-50
2022/12/03 00:39:35;;;;;;;13.23;11.00;;;;;20.70;101081.00;;;;2083732;28;20217;-49
2022/12/03 00:40:36;;;;;;;14.77;12.57;;;;;20.70;101080.00;;;;2086152;28;20220;-49
2022/12/03 00:41:36;;;;;;;13.00;11.60;;;;;20.70;101078.00;;;;2083169;28;20271;-50
2022/12/03 00:42:37;;;;;;;13.20;11.53;;;;;20.70;101078.00;;;;2088407;28;20216;-51
2022/12/03 00:43:37;;;;;;;12.53;11.23;;;;;20.70;101079.00;;;;2084976;28;25421;-50
2022/12/03 00:44:37;;;;;;;12.20;10.90;;;;;20.70;101080.00;;;;2083277;28;20235;-49
2022/12/03 00:45:38;;;;;;;12.30;11.00;;;;;20.60;101075.00;;;;2080283;28;20279;-49
2022/12/03 00:46:38;;;;;;;12.63;11.33;;;;;20.60;101064.00;;;;2079499;28;20225;-49
2022/12/03 00:47:38;;;;;;;13.20;11.87;;;;;20.70;101076.00;;;;2079852;28;20241;-49
2022/12/03 00:48:38;;;;;;;12.63;10.80;;;;;20.70;101074.00;;;;2085515;28;20248;-50
2022/12/03 00:49:41;;;;;;;13.30;11.90;;;;;20.70;101073.00;;;;2085671;28;20725;-48
2022/12/03 00:50:41;;;;;;;12.27;10.77;;;;;20.70;101068.00;;;;2079658;28;20740;-50
2022/12/03 00:51:41;;;;;;;12.40;10.13;;;;;20.70;101073.00;;;;2083945;28;20223;-50
2022/12/03 00:52:42;;;;;;;11.30;10.10;;;;;20.70;101070.00;;;;2084369;28;20216;-50
2022/12/03 00:53:42;;;;;;;12.10;10.80;;;;;20.70;101081.00;;;;2084738;28;20233;-49
2022/12/03 00:54:42;;;;;;;11.03;9.90;;;;;20.70;101078.00;;;;2088493;28;20440;-50
2022/12/03 00:55:43;;;;;;;10.97;9.77;;;;;20.70;101082.00;;;;2088278;28;20247;-49
2022/12/03 00:56:43;;;;;;;10.60;9.57;;;;;20.70;101082.00;;;;2079517;28;20217;-48
2022/12/03 00:57:43;;;;;;;11.73;10.53;;;;;20.60;101080.00;;;;2083222;28;20294;-50
2022/12/03 00:58:44;;;;;;;11.07;9.67;;;;;20.70;101078.00;;;;2086937;28;20958;-50
2022/12/03 00:59:44;;;;;;;11.40;10.20;;;;;20.70;101084.00;;;;2084727;28;20224;-50
2022/12/03 01:00:44;;;;;;;11.37;10.20;;;;;20.60;101079.00;;;;2080454;28;20225;-49
2022/12/03 01:01:45;;;;;;;11.17;9.97;;;;;20.60;101078.00;;;;2079827;28;20255;-50
2022/12/03 01:02:45;;;;;;;10.93;9.73;;;;;20.60;101081.00;;;;2079286;28;20221;-51
2022/12/03 01:03:45;;;;;;;11.77;9.87;;;;;20.60;101077.00;;;;2079194;28;20233;-51
2022/12/03 01:04:46;;;;;;;10.60;9.50;;;;;20.60;101083.00;;;;2078452;28;20244;-51
2022/12/03 01:05:46;;;;;;;10.73;9.60;;;;;20.60;101079.00;;;;2079953;28;20224;-50
2022/12/03 01:06:46;;;;;;;11.07;9.97;;;;;20.60;101072.00;;;;2079838;28;20301;-50
2022/12/03 01:07:46;;;;;;;10.47;9.23;;;;;20.60;101076.00;;;;2078515;28;20213;-50
2022/12/03 01:08:47;;;;;;;11.53;10.07;;;;;20.50;101084.00;;;;2079211;28;20674;-50
2022/12/03 01:09:47;;;;;;;10.27;9.27;;;;;20.60;101079.00;;;;2080016;28;20817;-50
2022/12/03 01:10:48;;;;;;;14.47;8.87;;;;;20.60;101085.00;;;;2080046;28;20759;-51
2022/12/03 01:11:48;;;;;;;11.43;9.27;;;;;20.60;101077.00;;;;2078684;28;20221;-50
2022/12/03 01:12:48;;;;;;;10.27;9.27;;;;;20.60;101092.00;;;;2080217;28;20223;-50
2022/12/03 01:13:48;;;;;;;9.53;7.93;;;;;20.60;101099.00;;;;2087334;28;20217;-50
2022/12/03 01:14:49;;;;;;;10.23;9.13;;;;;20.60;101089.00;;;;2080376;28;20245;-50
2022/12/03 01:15:49;;;;;;;10.17;9.17;;;;;20.60;101093.00;;;;2086769;28;20216;-50
2022/12/03 01:16:49;;;;;;;10.53;9.00;;;;;20.50;101089.00;;;;2081229;28;20221;-50
2022/12/03 01:17:50;;;;;;;9.37;8.43;;;;;20.50;101080.00;;;;2079955;28;20666;-49
2022/12/03 01:18:51;;;;;;;10.10;9.03;;;;;20.50;101087.00;;;;2079760;28;20220;-49
2022/12/03 01:19:52;;;;;;;9.98;8.98;;;;;20.50;101077.00;;;;2080160;28;20233;-50
2022/12/03 01:20:52;;;;;;;10.00;9.00;;;;;20.50;101078.00;;;;2080283;28;20623;-49
2022/12/03 01:21:53;;;;;;;10.20;8.77;;;;;20.50;101077.00;;;;2087815;28;20213;-50
2022/12/03 01:22:54;;;;;;;9.48;8.15;;;;;20.50;101077.00;;;;2085901;28;20259;-51
2022/12/03 01:23:55;;;;;;;9.57;8.60;;;;;20.50;101080.00;;;;2083840;28;20217;-51
2022/12/03 01:24:55;;;;;;;9.27;8.38;;;;;20.50;101078.00;;;;2084004;28;20228;-50
2022/12/03 01:25:55;;;;;;;8.60;7.80;;;;;20.40;101079.00;;;;2084536;28;20704;-50
2022/12/03 01:26:56;;;;;;;10.10;9.10;;;;;20.50;101080.00;;;;2088426;28;20666;-49
2022/12/03 01:27:56;;;;;;;9.30;8.40;;;;;20.50;101079.00;;;;2086176;28;20205;-50
2022/12/03 01:28:57;;;;;;;8.80;8.00;;;;;20.50;101082.00;;;;2080113;28;20205;-50
2022/12/03 01:29:57;;;;;;;9.47;8.47;;;;;20.50;101080.00;;;;2084369;28;20282;-50
2022/12/03 01:32:17;;;;;;;9.55;8.55;;;;;20.50;101083.00;;;;2088293;28;20208;-50
2022/12/03 01:33:17;;;;;;;8.03;7.23;;;;;20.50;101078.00;;;;2086271;28;20216;-50
2022/12/03 01:34:17;;;;;;;9.07;8.17;;;;;20.50;101073.00;;;;2080192;28;20351;-50
2022/12/03 01:35:18;;;;;;;9.03;8.13;;;;;20.50;101080.00;;;;2080246;28;20300;-50
2022/12/03 01:36:18;;;;;;;8.77;7.87;;;;;20.50;101085.00;;;;2081095;28;20213;-50
2022/12/03 01:37:19;;;;;;;9.03;8.13;;;;;20.40;101086.00;;;;2088350;28;20216;-50
2022/12/03 01:38:20;;;;;;;12.10;7.93;;;;;20.50;101086.00;;;;2087394;28;20926;-51
2022/12/03 01:39:21;;;;;;;9.25;7.88;;;;;20.50;101082.00;;;;2084560;28;20237;-50
2022/12/03 01:40:21;;;;;;;9.63;8.67;;;;;20.40;101073.00;;;;2087553;28;20271;-50
2022/12/03 01:41:22;;;;;;;9.10;8.20;;;;;20.40;101080.00;;;;2080890;28;20308;-50
2022/12/03 01:42:24;;;;;;;9.10;8.00;;;;;20.40;101082.00;;;;2087567;28;20213;-50
2022/12/03 01:43:25;;;;;;;8.65;7.72;;;;;20.40;101074.00;;;;2087342;28;20221;-50
2022/12/03 01:44:30;;;;;;;8.47;7.60;;;;;20.40;101071.00;;;;2081604;28;20206;-49
2022/12/03 01:45:30;;;;;;;8.88;7.65;;;;;20.40;101082.00;;;;2073189;28;20221;-51
2022/12/03 01:46:36;;;;;;;8.40;7.57;;;;;20.40;101077.00;;;;2079347;28;20216;-51
2022/12/03 01:47:36;;;;;;;8.82;8.02;;;;;20.40;101050.00;;;;2074755;28;20225;-50
2022/12/03 01:48:36;;;;;;;7.70;7.00;;;;;20.40;101082.00;;;;2065224;28;20650;-51
2022/12/03 01:49:42;;;;;;;8.50;7.70;;;;;20.40;101079.00;;;;2075437;28;20256;-51
2022/12/03 01:50:42;;;;;;;8.00;7.20;;;;;20.40;101083.00;;;;2068044;28;20207;-49
2022/12/03 01:51:43;;;;;;;9.27;8.37;;;;;20.40;101079.00;;;;2070577;28;20222;-50
2022/12/03 01:52:43;;;;;;;8.50;7.60;;;;;20.40;101081.00;;;;2079150;28;20222;-51
2022/12/03 01:53:43;;;;;;;7.90;7.20;;;;;20.40;101083.00;;;;2079145;28;20217;-49
2022/12/03 01:54:51;;;;;;;7.87;7.07;;;;;20.40;101075.00;;;;2083667;28;20218;-50
2022/12/03 01:55:51;;;;;;;8.80;7.90;;;;;20.40;101077.00;;;;2087369;28;20255;-50
2022/12/03 01:56:52;;;;;;;7.73;6.93;;;;;20.40;101078.00;;;;2084068;28;20588;-50
2022/12/03 01:57:53;;;;;;;7.90;7.10;;;;;20.40;101081.00;;;;2080109;28;20569;-49
2022/12/03 01:58:54;;;;;;;8.25;7.45;;;;;20.40;101076.00;;;;2083538;28;20626;-49
2022/12/03 01:59:55;;;;;;;9.80;8.13;;;;;20.40;101068.00;;;;2085788;28;20274;-50
2022/12/03 02:00:56;;;;;;;8.23;7.43;;;;;20.40;101075.00;;;;2083626;28;20216;-50
2022/12/03 02:01:57;;;;;;;8.32;7.53;;;;;20.40;101081.00;;;;2087103;28;20460;-49
2022/12/03 02:03:03;;;;;;;8.63;7.83;;;;;20.40;101076.00;;;;2083630;28;20216;-50
2022/12/03 02:04:03;;;;;;;8.32;7.53;;;;;20.40;101074.00;;;;2080076;28;20232;-50
2022/12/03 02:05:18;;;;;;;7.87;7.07;;;;;20.40;101082.00;;;;2086927;28;20981;-50
2022/12/03 02:06:19;;;;;;;8.60;7.70;;;;;20.40;101077.00;;;;2084913;28;20936;-50
2022/12/03 02:07:27;;;;;;;7.95;7.15;;;;;20.40;101079.00;;;;2086515;28;20398;-50
2022/12/03 02:08:34;;;;;;;8.07;7.25;;;;;20.40;101077.00;;;;2081460;28;20292;-50
2022/12/03 02:09:35;;;;;;;8.65;7.60;;;;;20.30;101079.00;;;;2080480;28;20244;-50
2022/12/03 02:10:35;;;;;;;8.27;7.47;;;;;20.40;101082.00;;;;2082846;28;20587;-51
2022/12/03 02:11:40;;;;;;;7.90;7.20;;;;;20.30;101073.00;;;;2081437;28;20593;-50
2022/12/03 02:12:58;;;;;;;7.95;7.15;;;;;20.40;101080.00;;;;2087131;28;20217;-49
2022/12/03 02:14:01;;;;;;;7.30;6.60;;;;;20.40;101077.00;;;;2087435;28;20212;-51
2022/12/03 02:15:02;;;;;;;7.45;6.75;;;;;20.30;101080.00;;;;2083351;28;20209;-48
2022/12/03 02:16:02;;;;;;;8.43;7.63;;;;;20.30;101073.00;;;;2070803;28;20281;-50
2022/12/03 02:17:03;;;;;;;7.70;6.90;;;;;20.30;101079.00;;;;2073572;28;20230;-50
2022/12/03 02:18:03;;;;;;;8.07;7.27;;;;;20.30;101069.00;;;;2083297;28;20205;-49
2022/12/03 02:19:03;;;;;;;7.60;6.90;;;;;20.30;101074.00;;;;2070899;28;20225;-50
2022/12/03 02:20:05;;;;;;;8.03;7.23;;;;;20.30;101080.00;;;;2070810;28;20218;-50
2022/12/03 02:21:29;;;;;;;8.30;7.50;;;;;20.30;101082.00;;;;2076988;28;20221;-49
2022/12/03 02:23:07;;;;;;;8.30;7.50;;;;;20.30;101077.00;;;;2067148;28;20213;-49
2022/12/03 02:24:22;;;;;;;7.18;6.47;;;;;20.30;101072.00;;;;2083682;28;20653;-50
2022/12/03 02:25:30;;;;;;;7.35;6.65;;;;;20.20;101077.00;;;;2087331;28;20227;-50
2022/12/03 02:26:31;;;;;;;6.93;6.28;;;;;20.20;101065.00;;;;2084388;28;20283;-50
2022/12/03 02:27:31;;;;;;;7.40;6.70;;;;;20.30;101076.00;;;;2078754;28;20213;-51
2022/12/03 02:28:31;;;;;;;8.20;7.40;;;;;20.20;101073.00;;;;2078719;28;20244;-49
2022/12/03 02:29:32;;;;;;;7.47;6.77;;;;;20.30;101070.00;;;;2084243;28;20224;-49
2022/12/03 02:30:32;;;;;;;7.57;6.70;;;;;20.20;101067.00;;;;2080876;28;20658;-50
2022/12/03 02:31:32;;;;;;;7.63;6.93;;;;;20.30;101069.00;;;;2078761;28;20990;-49
2022/12/03 02:32:33;;;;;;;8.00;7.20;;;;;20.30;101067.00;;;;2082619;28;20259;-50
2022/12/03 02:33:33;;;;;;;7.53;6.83;;;;;20.30;101068.00;;;;2082002;28;20635;-50
2022/12/03 02:34:42;;;;;;;7.70;7.00;;;;;20.30;101063.00;;;;2081250;28;20617;-50
2022/12/03 02:35:42;;;;;;;7.43;6.72;;;;;20.20;101068.00;;;;2087033;28;20216;-49
2022/12/03 02:36:42;;;;;;;7.37;6.67;;;;;20.30;101061.00;;;;2074268;28;20304;-49
2022/12/03 02:37:43;;;;;;;7.40;6.63;;;;;20.30;101063.00;;;;2073032;28;20221;-49
2022/12/03 02:38:43;;;;;;;7.13;6.43;;;;;20.30;101056.00;;;;2079932;28;20224;-50
2022/12/03 02:39:46;;;;;;;6.70;6.10;;;;;20.20;101059.00;;;;2083265;28;20965;-50
2022/12/03 02:40:48;;;;;;;7.95;6.38;;;;;20.20;101055.00;;;;2079653;28;20197;-50
2022/12/03 02:43:08;;;;;;;7.38;6.55;;;;;20.20;101050.00;;;;2080917;28;20288;-50
2022/12/03 02:44:08;;;;;;;7.80;7.07;;;;;20.20;101045.00;;;;2078063;28;20217;-50
2022/12/03 02:45:29;;;;;;;7.93;7.13;;;;;20.20;101052.00;;;;2075058;28;20701;-48
2022/12/03 02:46:29;;;;;;;8.10;7.32;;;;;20.20;101049.00;;;;2086964;28;20657;-50
2022/12/03 02:47:30;;;;;;;7.90;7.20;;;;;20.20;101047.00;;;;2078919;28;20240;-49
2022/12/03 02:48:32;;;;;;;7.30;6.60;;;;;20.20;101049.00;;;;2082358;28;20213;-50
2022/12/03 02:49:33;;;;;;;8.18;7.38;;;;;20.20;101042.00;;;;2078960;28;20687;-49
2022/12/03 02:50:38;;;;;;;7.33;6.63;;;;;20.20;101050.00;;;;2079371;28;20213;-49
2022/12/03 02:51:38;;;;;;;8.10;7.40;;;;;20.20;101054.00;;;;2082987;28;20594;-50
2022/12/03 02:52:39;;;;;;;6.83;6.13;;;;;20.20;101047.00;;;;2086852;28;20303;-50
2022/12/03 02:53:41;;;;;;;7.13;6.53;;;;;20.20;101049.00;;;;2086782;28;20209;-50
2022/12/03 02:54:41;;;;;;;7.40;6.70;;;;;20.20;101045.00;;;;2087430;28;20787;-52
2022/12/03 02:55:42;;;;;;;7.90;7.10;;;;;20.20;101041.00;;;;2072201;28;20302;-52
2022/12/03 02:56:42;;;;;;;7.73;7.03;;;;;20.20;101042.00;;;;2070219;28;20221;-50
2022/12/03 02:57:44;;;;;;;7.67;6.93;;;;;20.20;101044.00;;;;2078198;28;20209;-50
2022/12/03 02:58:45;;;;;;;6.70;6.05;;;;;20.20;101046.00;;;;2077862;28;20240;-50
2022/12/03 02:59:46;;;;;;;7.95;7.15;;;;;20.20;101049.00;;;;2077887;28;20206;-52
2022/12/03 03:00:48;;;;;;;7.50;6.80;;;;;20.20;101047.00;;;;2085246;28;20207;-51
2022/12/03 03:01:48;;;;;;;7.70;6.90;;;;;20.20;101045.00;;;;2069867;28;20285;-49
2022/12/03 03:02:49;;;;;;;8.23;7.43;;;;;20.10;101044.00;;;;2079206;28;20256;-52
2022/12/03 03:03:50;;;;;;;8.07;7.28;;;;;20.20;101047.00;;;;2086228;28;20578;-52
2022/12/03 03:04:50;;;;;;;8.10;7.30;;;;;20.10;101046.00;;;;2086144;28;20208;-52
2022/12/03 03:05:51;;;;;;;7.43;6.73;;;;;20.10;101049.00;;;;2086228;28;20236;-52
2022/12/03 03:06:51;;;;;;;7.40;6.70;;;;;20.10;101044.00;;;;2086167;28;20282;-52
2022/12/03 03:07:52;;;;;;;7.73;6.60;;;;;20.10;101040.00;;;;2087273;28;20451;-52
2022/12/03 03:08:52;;;;;;;7.30;6.60;;;;;20.20;101047.00;;;;2087158;28;20211;-51
2022/12/03 03:09:52;;;;;;;8.27;7.47;;;;;20.10;101041.00;;;;2086270;28;20219;-52
2022/12/03 03:10:53;;;;;;;6.90;6.30;;;;;20.20;101041.00;;;;2086292;28;20224;-52
2022/12/03 03:11:53;;;;;;;7.20;6.50;;;;;20.20;101043.00;;;;2085615;28;20223;-51
2022/12/03 03:12:54;;;;;;;7.57;6.87;;;;;20.20;101043.00;;;;2078197;28;20217;-51
2022/12/03 03:13:54;;;;;;;8.33;7.43;;;;;20.20;101036.00;;;;2085576;28;20247;-51
2022/12/03 03:14:54;;;;;;;7.70;7.00;;;;;20.20;101042.00;;;;2086241;28;20262;-52
2022/12/03 03:15:55;;;;;;;8.00;7.10;;;;;20.10;101035.00;;;;2086480;28;20263;-52
2022/12/03 03:16:55;;;;;;;8.33;7.53;;;;;20.10;101044.00;;;;2087282;28;20218;-52
2022/12/03 03:17:55;;;;;;;7.77;7.07;;;;;20.10;101039.00;;;;2086570;28;20212;-50
2022/12/03 03:18:56;;;;;;;7.40;6.70;;;;;20.10;101044.00;;;;2084891;28;20267;-51
2022/12/03 03:19:56;;;;;;;7.63;6.83;;;;;20.10;101040.00;;;;2086855;28;20236;-51
2022/12/03 03:20:56;;;;;;;7.30;6.63;;;;;20.10;101041.00;;;;2086975;28;20220;-51
2022/12/03 03:21:57;;;;;;;7.80;7.10;;;;;20.10;101044.00;;;;2086301;28;20213;-51
2022/12/03 03:23:09;;;;;;;7.60;6.37;;;;;20.10;101046.00;;;;2087004;28;20232;-52
2022/12/03 03:24:10;;;;;;;7.93;7.13;;;;;20.10;101036.00;;;;2086982;28;20295;-51
2022/12/03 03:25:15;;;;;;;7.70;6.93;;;;;20.10;101038.00;;;;2087132;28;20209;-51
2022/12/03 03:26:15;;;;;;;7.40;6.70;;;;;20.10;101040.00;;;;2086054;28;20954;-52
2022/12/03 03:27:16;;;;;;;7.60;6.80;;;;;20.10;101035.00;;;;2086413;28;20243;-52
2022/12/03 03:28:16;;;;;;;7.93;7.17;;;;;20.10;101037.00;;;;2087007;28;20582;-49
2022/12/03 03:29:16;;;;;;;8.07;7.23;;;;;20.10;101030.00;;;;2086192;28;20263;-51
2022/12/03 03:30:17;;;;;;;7.70;6.90;;;;;20.10;101038.00;;;;2085907;28;20216;-52
2022/12/03 03:31:19;;;;;;;7.20;6.50;;;;;20.10;101034.00;;;;2086034;28;20708;-51
2022/12/03 03:32:19;;;;;;;8.15;7.22;;;;;20.10;101039.00;;;;2085574;28;20305;-50
2022/12/03 03:33:20;;;;;;;7.53;6.73;;;;;20.10;101034.00;;;;2086465;28;20208;-52
2022/12/03 03:34:20;;;;;;;8.17;6.80;;;;;20.10;101028.00;;;;2077582;28;20213;-50
2022/12/03 03:35:21;;;;;;;7.60;6.80;;;;;20.10;101032.00;;;;2072201;28;20288;-50
2022/12/03 03:36:21;;;;;;;9.37;6.60;;;;;20.10;101041.00;;;;2085169;28;20281;-51
2022/12/03 03:37:21;;;;;;;7.63;6.83;;;;;20.10;101032.00;;;;2079317;28;20214;-52
2022/12/03 03:38:21;;;;;;;7.70;6.90;;;;;20.10;101037.00;;;;2085822;28;20327;-52
2022/12/03 03:39:22;;;;;;;7.87;7.07;;;;;20.10;101033.00;;;;2085845;28;20216;-51
2022/12/03 03:40:22;;;;;;;7.77;6.97;;;;;20.10;101036.00;;;;2086262;28;20209;-51
2022/12/03 03:41:22;;;;;;;8.10;7.33;;;;;20.10;101036.00;;;;2085690;28;20299;-51
2022/12/03 03:42:23;;;;;;;7.17;6.47;;;;;20.10;101037.00;;;;2075906;28;20213;-50
2022/12/03 03:43:23;;;;;;;8.40;7.50;;;;;20.00;101034.00;;;;2061737;28;20222;-51
2022/12/03 03:44:23;;;;;;;7.70;6.90;;;;;20.10;101040.00;;;;2069667;28;20210;-51
2022/12/03 03:45:24;;;;;;;7.40;6.70;;;;;20.00;101041.00;;;;2081661;28;20221;-51
2022/12/03 03:46:24;;;;;;;7.47;6.47;;;;;20.00;101046.00;;;;2086807;28;20288;-52
2022/12/03 03:47:25;;;;;;;7.63;6.83;;;;;20.00;101044.00;;;;2085962;28;20763;-49
2022/12/03 03:48:25;;;;;;;7.80;6.87;;;;;20.00;101047.00;;;;2086195;28;20255;-51
2022/12/03 03:49:25;;;;;;;7.87;7.10;;;;;20.00;101039.00;;;;2076923;28;20225;-50
2022/12/03 03:50:27;;;;;;;6.90;6.20;;;;;20.00;101038.00;;;;2085989;28;20251;-51
2022/12/03 03:51:27;;;;;;;7.30;6.60;;;;;20.00;101036.00;;;;2084731;28;20543;-52
2022/12/03 03:52:27;;;;;;;7.17;6.47;;;;;20.00;101047.00;;;;2068941;28;20306;-52
2022/12/03 03:53:28;;;;;;;8.40;7.03;;;;;20.00;101035.00;;;;2072814;28;20228;-50
2022/12/03 03:54:28;;;;;;;7.57;6.50;;;;;20.00;101046.00;;;;2079473;28;20301;-51
2022/12/03 03:55:29;;;;;;;8.90;7.90;;;;;20.00;101035.00;;;;2081079;28;20212;-51
2022/12/03 03:56:29;;;;;;;6.87;6.20;;;;;20.00;101033.00;;;;2069588;28;20315;-52
2022/12/03 03:57:29;;;;;;;7.80;7.10;;;;;20.00;101042.00;;;;2076035;28;20721;-51
2022/12/03 03:58:30;;;;;;;6.83;6.20;;;;;20.00;101041.00;;;;2077828;28;20673;-50
2022/12/03 03:59:30;;;;;;;8.13;7.33;;;;;20.00;101032.00;;;;2077951;28;20804;-51
2022/12/03 04:00:30;;;;;;;7.97;7.10;;;;;20.00;101035.00;;;;2069511;28;20260;-51
2022/12/03 04:01:31;;;;;;;8.37;7.53;;;;;20.00;101037.00;;;;2072372;28;20217;-52
2022/12/03 04:02:31;;;;;;;8.87;7.30;;;;;20.00;101030.00;;;;2080995;28;20225;-52
2022/12/03 04:03:32;;;;;;;7.37;6.67;;;;;20.00;101022.00;;;;2082016;28;20224;-51
2022/12/03 04:04:34;;;;;;;8.52;7.63;;;;;20.00;101047.00;;;;2077588;28;20217;-50
2022/12/03 04:05:34;;;;;;;9.25;7.15;;;;;20.00;101042.00;;;;2078027;28;20225;-49
2022/12/03 04:06:34;;;;;;;8.37;6.93;;;;;20.00;101030.00;;;;2086328;28;20272;-49
2022/12/03 04:07:35;;;;;;;8.10;7.10;;;;;19.90;101023.00;;;;2081951;28;20300;-51
2022/12/03 04:08:35;;;;;;;8.20;7.40;;;;;19.90;101025.00;;;;2083899;28;20217;-50
2022/12/03 04:09:35;;;;;;;7.80;7.00;;;;;19.90;101032.00;;;;2087115;28;20220;-51
2022/12/03 04:13:13;;;;;;;8.27;7.38;;;;;19.90;101031.00;;;;2082596;28;20213;-50
2022/12/03 04:14:14;;;;;;;8.37;7.40;;;;;20.00;101035.00;;;;2086383;28;20221;-51
2022/12/03 04:15:14;;;;;;;8.07;7.27;;;;;20.00;101014.00;;;;2085176;28;20220;-51
2022/12/03 04:16:15;;;;;;;7.37;6.67;;;;;19.90;101029.00;;;;2087113;28;20213;-50
2022/12/03 04:17:15;;;;;;;8.27;7.40;;;;;19.90;101024.00;;;;2086899;28;20617;-49
2022/12/03 04:19:34;;;;;;;8.00;7.20;;;;;19.90;101026.00;;;;2083431;28;20213;-50
2022/12/03 04:20:34;;;;;;;7.80;7.00;;;;;19.90;101013.00;;;;2081547;28;20225;-51
2022/12/03 04:22:53;;;;;;;7.75;7.05;;;;;19.90;101023.00;;;;2083976;28;20221;-50
2022/12/03 04:23:54;;;;;;;8.47;7.40;;;;;19.90;101024.00;;;;2088138;28;20579;-51
2022/12/03 04:28:47;;;;;;;8.80;8.00;;;;;19.90;101023.00;;;;2081530;28;20737;-50
2022/12/03 04:29:00;;;;;;;7.90;7.10;;;;;19.90;101019.00;;;;2077796;28;20210;-51
2022/12/03 04:30:00;;;;;;;8.60;7.13;;;;;19.90;101018.00;;;;2088078;28;20292;-50
2022/12/03 04:35:41;;;;;;;8.93;7.30;;;;;19.90;101008.00;;;;2088342;28;20228;-52
2022/12/03 04:36:17;;;;;;;8.10;7.30;;;;;19.90;101018.00;;;;2079771;28;20213;-51
2022/12/03 04:37:18;;;;;;;8.23;7.13;;;;;19.80;101014.00;;;;2079864;28;20296;-50
2022/12/03 04:38:18;;;;;;;7.73;6.97;;;;;19.90;101014.00;;;;2078021;28;20214;-50
2022/12/03 04:39:18;;;;;;;9.10;7.47;;;;;19.90;101012.00;;;;2079578;28;20213;-51
2022/12/03 04:41:37;;;;;;;8.85;7.68;;;;;19.90;101007.00;;;;2079668;28;20228;-52
2022/12/03 04:42:38;;;;;;;8.27;7.17;;;;;19.90;101011.00;;;;2086680;28;20278;-52
2022/12/03 04:44:31;;;;;;;8.00;7.20;;;;;19.90;101011.00;;;;2087363;28;20216;-51
2022/12/03 04:44:58;;;;;;;9.20;8.05;;;;;19.90;101007.00;;;;2087836;28;20219;-49
2022/12/03 04:45:59;;;;;;;9.30;7.70;;;;;19.90;101010.00;;;;2088483;28;20228;-51
2022/12/03 04:47:16;;;;;;;8.60;7.30;;;;;19.90;101018.00;;;;2085552;28;20220;-51
2022/12/03 04:48:16;;;;;;;9.55;8.00;;;;;19.70;101009.00;;;;2085560;28;21084;-51
2022/12/03 04:49:17;;;;;;;9.77;7.53;;;;;19.80;101004.00;;;;2087915;28;20209;-49
2022/12/03 04:50:17;;;;;;;8.37;7.10;;;;;19.80;101005.00;;;;2088277;28;20221;-51
2022/12/03 04:51:17;;;;;;;9.40;7.20;;;;;19.80;101015.00;;;;2088157;28;20249;-51
2022/12/03 04:52:18;;;;;;;7.93;6.83;;;;;19.90;101012.00;;;;2087717;28;20213;-51
2022/12/03 04:53:19;;;;;;;9.25;7.80;;;;;19.80;101002.00;;;;2087466;28;20362;-50
2022/12/03 04:54:19;;;;;;;8.20;7.20;;;;;19.80;101012.00;;;;2087231;28;20669;-51
2022/12/03 04:55:19;;;;;;;7.80;6.73;;;;;19.90;101005.00;;;;2086097;28;20667;-51
2022/12/03 04:56:20;;;;;;;8.03;7.10;;;;;19.70;101006.00;;;;2079899;28;20213;-51
2022/12/03 04:57:20;;;;;;;8.20;7.10;;;;;19.80;101007.00;;;;2080208;28;20221;-51
2022/12/03 04:58:20;;;;;;;8.40;7.27;;;;;19.80;101007.00;;;;2086814;28;20229;-51
2022/12/03 04:59:21;;;;;;;8.30;7.10;;;;;19.80;101014.00;;;;2083709;28;20217;-51
2022/12/03 05:00:21;;;;;;;8.27;7.37;;;;;19.80;101007.00;;;;2080087;28;20221;-51
2022/12/03 05:01:21;;;;;;;8.27;7.20;;;;;19.80;101006.00;;;;2080036;28;20248;-51
2022/12/03 05:02:22;;;;;;;10.67;7.90;;;;;19.80;101011.00;;;;2078831;28;20243;-51
2022/12/03 05:03:22;;;;;;;8.33;7.53;;;;;19.80;101005.00;;;;2080060;28;20214;-51
2022/12/03 05:04:22;;;;;;;8.93;7.80;;;;;19.80;101007.00;;;;2079816;28;20213;-52
2022/12/03 05:05:23;;;;;;;10.57;8.97;;;;;19.80;100995.00;;;;2080092;28;20217;-52
2022/12/03 05:06:23;;;;;;;9.63;7.97;;;;;19.80;101003.00;;;;2079932;28;20312;-51
2022/12/03 05:07:23;;;;;;;8.83;7.27;;;;;19.80;101008.00;;;;2086762;28;20224;-49
2022/12/03 05:08:24;;;;;;;9.17;7.67;;;;;19.80;101004.00;;;;2087272;28;20217;-49
2022/12/03 05:09:24;;;;;;;8.67;7.20;;;;;19.80;101007.00;;;;2088243;28;20764;-51
2022/12/03 05:10:25;;;;;;;9.10;7.30;;;;;19.80;101003.00;;;;2088198;28;20303;-51
2022/12/03 05:11:25;;;;;;;9.50;7.87;;;;;19.80;101006.00;;;;2087443;28;20233;-50
2022/12/03 05:12:25;;;;;;;9.33;7.90;;;;;19.80;101008.00;;;;2086559;28;20274;-51
2022/12/03 05:13:26;;;;;;;9.30;7.10;;;;;19.80;101008.00;;;;2088246;28;20299;-49
2022/12/03 05:14:26;;;;;;;9.53;7.50;;;;;19.80;101010.00;;;;2088250;28;20224;-50
2022/12/03 05:15:26;;;;;;;10.13;8.37;;;;;19.80;101003.00;;;;2087878;28;20274;-49
2022/12/03 05:16:27;;;;;;;8.00;6.87;;;;;19.80;101004.00;;;;2088166;28;20225;-51
2022/12/03 05:17:27;;;;;;;9.70;7.30;;;;;19.80;101003.00;;;;2087903;28;20229;-51